createdAt,value
2023-04-29T00:01:10.824Z,101522.13
2023-04-29T00:03:40.519Z,101523.22
2023-04-29T00:06:08.419Z,101529.03
2023-04-29T00:08:36.255Z,101531.88
2023-04-29T00:11:04.608Z,101532.09
2023-04-29T00:13:32.520Z,101532.44
2023-04-29T00:16:00.435Z,101534.31
2023-04-29T00:18:28.334Z,101534.09
2023-04-29T00:20:57.542Z,101533.47
2023-04-29T00:23:25.490Z,101526.31
2023-04-29T00:25:53.806Z,101523.81
2023-04-29T00:28:21.860Z,101527.41
2023-04-29T00:30:49.620Z,101534.53
2023-04-29T00:33:17.530Z,101532.66
2023-04-29T00:35:45.312Z,101525.53
2023-04-29T00:38:14.408Z,101542.06
2023-04-29T00:40:43.716Z,101535.88
2023-04-29T00:43:11.545Z,101537.50
2023-04-29T00:45:39.416Z,101538.59
2023-04-29T00:48:07.925Z,101540.06
2023-04-29T00:50:36.756Z,101547.72
2023-04-29T00:53:04.942Z,101545.22
2023-04-29T00:55:34.774Z,101546.09
2023-04-29T00:58:06.047Z,101558.41
2023-04-29T01:00:34.153Z,101547.84
2023-04-29T01:03:02.761Z,101558.44
2023-04-29T01:05:30.771Z,101553.50
2023-04-29T01:08:13.181Z,101560.31
2023-04-29T01:10:46.424Z,101556.28
2023-04-29T01:13:20.302Z,101561.44
2023-04-29T01:15:49.379Z,101572.28
2023-04-29T01:18:24.726Z,101575.63
2023-04-29T01:20:53.049Z,101568.25
2023-04-29T01:23:20.854Z,101575.47
2023-04-29T01:25:50.079Z,101570.94
2023-04-29T01:28:32.001Z,101575.25
2023-04-29T01:31:16.548Z,101581.19
2023-04-29T01:33:52.116Z,101579.88
2023-04-29T01:36:33.378Z,101584.53
2023-04-29T01:39:07.784Z,101586.25
2023-04-29T01:41:44.312Z,101586.13
2023-04-29T01:44:17.758Z,101592.53
2023-04-29T01:46:51.661Z,101585.84
2023-04-29T01:49:21.772Z,101587.59
2023-04-29T01:51:49.506Z,101596.22
2023-04-29T01:54:17.336Z,101588.97
2023-04-29T01:56:46.692Z,101599.28
2023-04-29T01:59:16.828Z,101585.84
2023-04-29T02:01:44.797Z,101589.31
2023-04-29T02:04:12.584Z,101589.44
2023-04-29T02:06:40.622Z,101583.91
2023-04-29T02:09:08.325Z,101586.19
2023-04-29T02:11:36.228Z,101603.00
2023-04-29T02:14:05.337Z,101602.56
2023-04-29T02:16:33.194Z,101600.63
2023-04-29T02:19:01.068Z,101599.53
2023-04-29T02:21:28.940Z,101611.75
2023-04-29T02:23:56.934Z,101620.53
2023-04-29T02:26:24.891Z,101624.84
2023-04-29T02:28:53.507Z,101625.81
2023-04-29T02:31:22.704Z,101624.09
2023-04-29T02:33:50.504Z,101626.56
2023-04-29T02:36:18.883Z,101625.69
2023-04-29T02:38:46.781Z,101635.44
2023-04-29T02:41:17.827Z,101630.03
2023-04-29T02:43:45.899Z,101639.56
2023-04-29T02:46:13.999Z,101643.38
2023-04-29T02:48:43.142Z,101654.94
2023-04-29T02:51:11.148Z,101650.97
2023-04-29T02:53:38.899Z,101647.72
2023-04-29T02:56:06.903Z,101663.53
2023-04-29T02:58:34.686Z,101654.69
2023-04-29T03:01:02.546Z,101655.88
2023-04-29T03:03:30.579Z,101665.28
2023-04-29T03:05:59.829Z,101664.41
2023-04-29T03:08:28.421Z,101666.50
2023-04-29T03:10:56.305Z,101664.63
2023-04-29T03:13:24.175Z,101668.28
2023-04-29T03:15:51.952Z,101669.16
2023-04-29T03:18:19.796Z,101672.59
2023-04-29T03:20:47.544Z,101676.91
2023-04-29T03:23:16.874Z,101677.03
2023-04-29T03:25:45.336Z,101670.41
2023-04-29T03:28:13.205Z,101661.75
2023-04-29T03:30:40.954Z,101672.72
2023-04-29T03:33:09.296Z,101667.03
2023-04-29T03:35:37.204Z,101682.25
2023-04-29T03:38:04.997Z,101681.38
2023-04-29T03:40:34.269Z,101671.75
2023-04-29T03:43:02.195Z,101678.66
2023-04-29T03:45:29.979Z,101681.78
2023-04-29T03:47:57.716Z,101680.91
2023-04-29T03:50:26.151Z,101682.75
2023-04-29T03:52:54.058Z,101694.25
2023-04-29T03:55:21.998Z,101691.41
2023-04-29T03:57:51.236Z,101688.56
2023-04-29T04:00:19.285Z,101668.44
2023-04-29T04:02:47.416Z,101671.03
2023-04-29T04:05:15.408Z,101690.38
2023-04-29T04:07:43.196Z,101697.66
2023-04-29T04:10:11.782Z,101682.94
2023-04-29T04:12:39.874Z,101703.06
2023-04-29T04:15:10.673Z,101698.97
2023-04-29T04:17:38.464Z,101702.22
2023-04-29T04:20:07.472Z,101695.78
2023-04-29T04:22:35.268Z,101707.00
2023-04-29T04:25:03.120Z,101707.53
2023-04-29T04:27:31.020Z,101711.97
2023-04-29T04:29:59.027Z,101714.13
2023-04-29T04:32:28.249Z,101727.47
2023-04-29T04:34:56.226Z,101727.38
2023-04-29T04:37:24.112Z,101727.69
2023-04-29T04:39:52.075Z,101735.38
2023-04-29T04:42:20.099Z,101733.75
2023-04-29T04:44:47.932Z,101739.31
2023-04-29T04:47:16.041Z,101729.16
2023-04-29T04:49:45.317Z,101745.19
2023-04-29T04:52:13.099Z,101759.28
2023-04-29T04:54:40.914Z,101759.00
2023-04-29T04:57:08.808Z,101762.44
2023-04-29T04:59:36.632Z,101763.97
2023-04-29T05:02:04.388Z,101759.50
2023-04-29T05:04:32.269Z,101771.22
2023-04-29T05:07:01.460Z,101766.69
2023-04-29T05:09:29.201Z,101775.31
2023-04-29T05:11:59.270Z,101768.16
2023-04-29T05:14:27.170Z,101779.31
2023-04-29T05:16:55.082Z,101790.81
2023-04-29T05:19:22.962Z,101778.44
2023-04-29T05:21:50.787Z,101790.16
2023-04-29T05:24:20.161Z,101793.97
2023-04-29T05:26:50.075Z,101793.09
2023-04-29T05:29:17.794Z,101792.97
2023-04-29T05:31:45.576Z,101797.34
2023-04-29T05:34:13.305Z,101794.63
2023-04-29T05:36:41.150Z,101804.59
2023-04-29T05:39:08.885Z,101804.84
2023-04-29T05:41:38.026Z,101805.69
2023-04-29T05:44:06.157Z,101808.06
2023-04-29T05:46:34.110Z,101804.72
2023-04-29T05:49:01.911Z,101798.22
2023-04-29T05:51:29.632Z,101808.28
2023-04-29T05:53:59.447Z,101815.88
2023-04-29T05:56:27.229Z,101811.63
2023-04-29T05:58:56.302Z,101828.22
2023-04-29T06:01:24.040Z,101832.41
2023-04-29T06:03:52.111Z,101829.63
2023-04-29T06:06:20.420Z,101845.00
2023-04-29T06:08:48.328Z,101845.00
2023-04-29T06:11:16.070Z,101838.81
2023-04-29T06:13:43.797Z,101843.81
2023-04-29T06:16:13.603Z,101855.75
2023-04-29T06:18:41.526Z,101847.72
2023-04-29T06:21:09.285Z,101859.47
2023-04-29T06:23:37.042Z,101859.34
2023-04-29T06:26:04.816Z,101859.66
2023-04-29T06:28:32.566Z,101861.47
2023-04-29T06:31:00.374Z,101869.50
2023-04-29T06:33:30.433Z,101879.38
2023-04-29T06:35:58.153Z,101884.94
2023-04-29T06:38:25.911Z,101889.06
2023-04-29T06:40:53.623Z,101883.38
2023-04-29T06:43:21.321Z,101882.91
2023-04-29T06:45:49.355Z,101894.94
2023-04-29T06:48:17.154Z,101898.59
2023-04-29T06:50:52.246Z,101898.03
2023-04-29T06:53:20.174Z,101900.78
2023-04-29T06:55:47.961Z,101902.28
2023-04-29T06:58:16.462Z,101911.25
2023-04-29T07:00:46.283Z,101914.94
2023-04-29T07:03:14.615Z,101920.91
2023-04-29T07:05:45.433Z,101915.75
2023-04-29T07:08:15.556Z,101927.38
2023-04-29T07:10:43.438Z,101932.34
2023-04-29T07:13:11.334Z,101925.19
2023-04-29T07:15:39.047Z,101941.50
2023-04-29T07:18:07.420Z,101952.00
2023-04-29T07:20:37.956Z,101943.38
2023-04-29T07:23:05.777Z,101957.59
2023-04-29T07:25:34.924Z,101958.81
2023-04-29T07:28:02.810Z,101960.69
2023-04-29T07:30:30.911Z,101958.97
2023-04-29T07:32:58.799Z,101958.13
2023-04-29T07:35:26.594Z,101963.44
2023-04-29T07:37:54.404Z,101966.94
2023-04-29T07:40:22.272Z,101966.25
2023-04-29T07:42:51.586Z,101967.78
2023-04-29T07:45:19.499Z,101966.91
2023-04-29T07:47:47.496Z,101972.81
2023-04-29T07:50:16.204Z,101966.41
2023-04-29T07:52:44.092Z,101966.53
2023-04-29T07:55:11.847Z,101971.59
2023-04-29T07:57:39.871Z,101974.47
2023-04-29T08:00:10.923Z,101969.00
2023-04-29T08:02:39.116Z,101977.25
2023-04-29T08:05:08.263Z,101978.63
2023-04-29T08:07:36.537Z,101965.94
2023-04-29T08:10:04.496Z,101972.44
2023-04-29T08:12:32.469Z,101966.63
2023-04-29T08:15:00.265Z,101962.78
2023-04-29T08:17:29.669Z,101973.41
2023-04-29T08:19:57.681Z,101966.44
2023-04-29T08:22:25.519Z,101974.28
2023-04-29T08:24:53.581Z,101969.25
2023-04-29T08:27:22.005Z,101979.72
2023-04-29T08:29:49.777Z,101979.97
2023-04-29T08:32:17.573Z,101987.56
2023-04-29T08:34:46.893Z,101986.16
2023-04-29T08:37:17.667Z,101984.75
2023-04-29T08:39:47.362Z,101988.38
2023-04-29T08:42:15.390Z,101994.19
2023-04-29T08:44:44.752Z,101992.69
2023-04-29T08:47:14.092Z,102002.72
2023-04-29T08:49:42.398Z,102003.97
2023-04-29T08:52:11.751Z,102005.19
2023-04-29T08:54:39.563Z,102003.84
2023-04-29T08:57:08.090Z,102005.44
2023-04-29T08:59:37.886Z,102004.94
2023-04-29T09:02:09.914Z,102009.59
2023-04-29T09:04:48.524Z,102011.19
2023-04-29T09:07:18.389Z,102005.13
2023-04-29T09:09:46.378Z,102013.69
2023-04-29T09:12:14.204Z,102011.19
2023-04-29T09:14:41.974Z,102010.13
2023-04-29T09:17:10.041Z,102009.72
2023-04-29T09:19:38.229Z,102009.66
2023-04-29T09:22:07.348Z,102019.19
2023-04-29T09:24:36.558Z,102016.41
2023-04-29T09:27:04.556Z,102010.84
2023-04-29T09:29:33.150Z,102008.72
2023-04-29T09:32:01.075Z,102016.66
2023-04-29T09:34:33.280Z,102000.09
2023-04-29T09:37:01.285Z,102015.59
2023-04-29T09:39:40.958Z,102019.31
2023-04-29T09:42:09.698Z,102025.78
2023-04-29T09:44:37.516Z,102026.13
2023-04-29T09:47:07.486Z,102030.38
2023-04-29T09:49:38.365Z,102040.84
2023-04-29T09:52:07.431Z,102024.72
2023-04-29T09:54:36.465Z,102028.22
2023-04-29T09:57:07.004Z,102030.03
2023-04-29T09:59:36.473Z,102028.81
2023-04-29T10:02:09.657Z,102025.22
2023-04-29T10:04:41.925Z,102035.69
2023-04-29T10:07:10.603Z,102035.94
2023-04-29T10:09:41.018Z,102039.13
2023-04-29T10:12:11.131Z,102030.22
2023-04-29T10:14:44.599Z,102027.03
2023-04-29T10:17:17.980Z,102047.31
2023-04-29T10:19:52.777Z,102049.22
2023-04-29T10:22:28.016Z,102048.63
2023-04-29T10:24:59.285Z,102044.88
2023-04-29T10:27:29.556Z,102048.41
2023-04-29T10:29:59.538Z,102049.13
2023-04-29T10:32:37.017Z,102049.69
2023-04-29T10:35:13.849Z,102060.22
2023-04-29T10:37:43.244Z,102053.75
2023-04-29T10:40:16.273Z,102032.53
2023-04-29T10:42:47.777Z,102030.53
2023-04-29T10:45:22.957Z,102041.84
2023-04-29T10:48:10.055Z,102039.69
2023-04-29T10:51:00.343Z,102053.88
2023-04-29T10:53:29.062Z,102044.66
2023-04-29T10:56:00.183Z,102047.53
2023-04-29T10:58:47.015Z,102034.28
2023-04-29T11:01:16.699Z,102047.84
2023-04-29T11:04:01.654Z,102031.97
2023-04-29T11:06:41.608Z,102043.22
2023-04-29T11:09:12.093Z,102053.59
2023-04-29T11:11:44.375Z,102045.19
2023-04-29T11:14:14.925Z,102041.91
2023-04-29T11:16:50.341Z,102053.34
2023-04-29T11:19:18.704Z,102039.25
2023-04-29T11:21:47.988Z,102053.22
2023-04-29T11:24:18.947Z,102045.88
2023-04-29T11:26:46.956Z,102038.50
2023-04-29T11:29:16.309Z,102042.72
2023-04-29T11:31:44.178Z,102038.53
2023-04-29T11:34:12.079Z,102037.09
2023-04-29T11:36:39.900Z,102036.69
2023-04-29T11:39:08.165Z,102029.47
2023-04-29T11:41:36.532Z,102037.59
2023-04-29T11:44:06.481Z,102034.53
2023-04-29T11:46:35.768Z,102046.94
2023-04-29T11:49:03.611Z,102044.72
2023-04-29T11:51:33.177Z,102042.66
2023-04-29T11:54:00.980Z,102046.56
2023-04-29T11:56:28.761Z,102044.53
2023-04-29T11:58:57.748Z,102037.13
2023-04-29T12:01:44.469Z,102034.66
2023-04-29T12:04:13.938Z,102025.81
2023-04-29T12:06:41.853Z,102028.50
2023-04-29T12:09:09.672Z,102040.88
2023-04-29T12:11:39.582Z,102041.31
2023-04-29T12:14:07.940Z,102038.75
2023-04-29T12:16:36.277Z,102049.94
2023-04-29T12:19:04.396Z,102045.44
2023-04-29T12:21:35.625Z,102035.53
2023-04-29T12:24:04.134Z,102041.84
2023-04-29T12:26:33.479Z,102041.97
2023-04-29T12:29:01.443Z,102046.66
2023-04-29T12:31:36.455Z,102053.59
2023-04-29T12:34:08.355Z,102048.75
2023-04-29T12:36:39.066Z,102054.91
2023-04-29T12:39:10.250Z,102045.00
2023-04-29T12:41:39.210Z,102044.41
2023-04-29T12:44:07.612Z,102059.75
2023-04-29T12:46:37.020Z,102043.16
2023-04-29T12:49:05.252Z,102062.03
2023-04-29T12:51:33.840Z,102048.50
2023-04-29T12:54:03.780Z,102067.31
2023-04-29T12:56:31.971Z,102056.66
2023-04-29T12:59:07.402Z,102061.84
2023-04-29T13:01:35.404Z,102060.44
2023-04-29T13:04:05.276Z,102060.50
2023-04-29T13:06:34.380Z,102018.69
2023-04-29T13:09:04.089Z,102062.09
2023-04-29T13:11:34.685Z,102064.16
2023-04-29T13:14:02.862Z,102062.44
2023-04-29T13:16:32.358Z,102057.59
2023-04-29T13:19:17.066Z,102061.28
2023-04-29T13:21:48.589Z,102054.81
2023-04-29T13:24:20.202Z,102065.19
2023-04-29T13:26:49.661Z,102066.34
2023-04-29T13:29:18.068Z,102064.09
2023-04-29T13:31:46.033Z,102058.00
2023-04-29T13:34:14.181Z,102061.13
2023-04-29T13:36:42.144Z,102062.84
2023-04-29T13:39:10.570Z,102052.09
2023-04-29T13:41:44.229Z,102057.06
2023-04-29T13:44:24.020Z,102058.31
2023-04-29T13:46:58.916Z,102067.31
2023-04-29T13:54:58.498Z,102075.16
2023-04-29T13:59:53.288Z,102078.50
2023-04-29T14:02:25.702Z,102074.56
2023-04-29T14:04:54.979Z,102077.00
2023-04-29T14:07:23.606Z,102069.41
2023-04-29T14:09:51.875Z,102068.34
2023-04-29T14:12:21.276Z,102062.34
2023-04-29T14:14:49.101Z,102080.81
2023-04-29T14:17:17.333Z,102067.88
2023-04-29T14:19:45.260Z,102071.16
2023-04-29T14:22:13.070Z,102080.28
2023-04-29T14:24:41.184Z,102082.28
2023-04-29T14:27:09.042Z,102070.28
2023-04-29T14:29:38.247Z,102077.72
2023-04-29T14:32:07.410Z,102080.94
2023-04-29T14:34:35.229Z,102078.78
2023-04-29T14:37:03.317Z,102085.91
2023-04-29T14:39:31.115Z,102092.00
2023-04-29T14:41:59.053Z,102083.03
2023-04-29T14:44:27.148Z,102087.13
2023-04-29T14:46:56.334Z,102084.00
2023-04-29T14:49:26.346Z,102078.88
2023-04-29T14:51:54.160Z,102083.91
2023-04-29T14:54:22.054Z,102073.88
2023-04-29T14:56:50.003Z,102078.44
2023-04-29T14:59:17.778Z,102086.44
2023-04-29T15:01:45.813Z,102084.84
2023-04-29T15:04:15.172Z,102081.19
2023-04-29T15:06:43.288Z,102080.13
2023-04-29T15:09:11.087Z,102083.59
2023-04-29T15:11:38.887Z,102101.94
2023-04-29T15:14:06.689Z,102099.19
2023-04-29T15:16:36.607Z,102113.06
2023-04-29T15:19:04.561Z,102107.09
2023-04-29T15:21:34.460Z,102114.59
2023-04-29T15:24:03.054Z,102110.28
2023-04-29T15:26:30.940Z,102102.38
2023-04-29T15:28:59.026Z,102096.28
2023-04-29T15:31:28.641Z,102102.44
2023-04-29T15:33:58.256Z,102102.16
2023-04-29T15:36:30.196Z,102103.97
2023-04-29T15:38:59.516Z,102102.84
2023-04-29T15:41:27.626Z,102108.91
2023-04-29T15:43:57.819Z,102106.59
2023-04-29T15:46:25.813Z,102111.72
2023-04-29T15:48:53.747Z,102111.84
2023-04-29T15:51:21.644Z,102114.69
2023-04-29T15:53:50.935Z,102111.28
2023-04-29T15:56:20.085Z,102115.03
2023-04-29T15:58:48.055Z,102113.97
2023-04-29T16:01:15.958Z,102118.53
2023-04-29T16:03:43.811Z,102123.72
2023-04-29T16:06:11.855Z,102119.94
2023-04-29T16:08:39.718Z,102112.72
2023-04-29T16:11:07.554Z,102129.34
2023-04-29T16:13:36.868Z,102127.75
2023-04-29T16:16:04.919Z,102129.94
2023-04-29T16:18:33.858Z,102134.25
2023-04-29T16:21:02.752Z,102134.63
2023-04-29T16:23:30.684Z,102137.22
2023-04-29T16:25:58.772Z,102142.19
2023-04-29T16:28:26.861Z,102143.75
2023-04-29T16:30:58.904Z,102125.97
2023-04-29T16:33:28.124Z,102136.59
2023-04-29T16:35:58.295Z,102133.97
2023-04-29T16:38:26.293Z,102132.78
2023-04-29T16:40:54.363Z,102133.97
2023-04-29T16:43:22.857Z,102137.38
2023-04-29T16:45:51.072Z,102139.28
2023-04-29T16:48:20.364Z,102126.31
2023-04-29T16:50:50.468Z,102142.91
2023-04-29T16:53:18.537Z,102135.81
2023-04-29T16:55:46.662Z,102131.66
2023-04-29T16:58:14.624Z,102124.94
2023-04-29T17:00:42.998Z,102130.00
2023-04-29T17:03:10.945Z,102135.91
2023-04-29T17:05:40.680Z,102139.94
2023-04-29T17:08:08.771Z,102131.47
2023-04-29T17:10:36.749Z,102139.69
2023-04-29T17:13:04.480Z,102138.59
2023-04-29T17:15:32.441Z,102131.22
2023-04-29T17:18:00.477Z,102138.72
2023-04-29T17:20:28.388Z,102135.09
2023-04-29T17:22:57.543Z,102137.28
2023-04-29T17:25:25.373Z,102140.75
2023-04-29T17:27:53.145Z,102143.75
2023-04-29T17:30:20.974Z,102141.59
2023-04-29T17:32:49.905Z,102136.00
2023-04-29T17:35:17.943Z,102144.63
2023-04-29T17:37:47.825Z,102143.47
2023-04-29T17:40:21.471Z,102131.66
2023-04-29T17:42:49.967Z,102141.91
2023-04-29T17:45:18.183Z,102148.97
2023-04-29T17:47:46.073Z,102156.19
2023-04-29T17:50:13.935Z,102157.94
2023-04-29T17:52:41.782Z,102151.88
2023-04-29T17:55:12.626Z,102152.72
2023-04-29T17:57:43.411Z,102157.91
2023-04-29T18:00:12.655Z,102159.03
2023-04-29T18:02:40.823Z,102160.44
2023-04-29T18:05:09.218Z,102160.13
2023-04-29T18:07:40.072Z,102153.63
2023-04-29T18:10:09.715Z,102138.25
2023-04-29T18:12:37.557Z,102168.09
2023-04-29T18:15:09.667Z,102162.44
2023-04-29T18:17:37.567Z,102171.34
2023-04-29T18:20:06.555Z,102170.00
2023-04-29T18:22:34.644Z,102175.13
2023-04-29T18:25:02.545Z,102169.97
2023-04-29T18:27:30.440Z,102180.31
2023-04-29T18:29:58.452Z,102174.13
2023-04-29T18:32:27.657Z,102176.09
2023-04-29T18:34:56.271Z,102178.78
2023-04-29T18:37:24.219Z,102189.25
2023-04-29T18:39:52.555Z,102182.56
2023-04-29T18:42:21.172Z,102169.50
2023-04-29T18:44:53.906Z,102187.63
2023-04-29T18:47:21.812Z,102194.09
2023-04-29T18:49:51.666Z,102197.22
2023-04-29T18:52:19.524Z,102180.91
2023-04-29T18:54:48.907Z,102174.72
2023-04-29T18:57:16.719Z,102185.03
2023-04-29T18:59:45.235Z,102181.47
2023-04-29T19:02:13.244Z,102200.19
2023-04-29T19:04:44.270Z,102199.09
2023-04-29T19:07:17.814Z,102203.53
2023-04-29T19:09:45.607Z,102204.44
2023-04-29T19:12:13.448Z,102201.22
2023-04-29T19:14:41.981Z,102203.81
2023-04-29T19:17:10.595Z,102203.44
2023-04-29T19:19:38.598Z,102219.94
2023-04-29T19:22:07.369Z,102223.25
2023-04-29T19:24:37.445Z,102225.50
2023-04-29T19:27:09.666Z,102238.75
2023-04-29T19:29:38.398Z,102226.97
2023-04-29T19:32:08.996Z,102246.78
2023-04-29T19:34:40.106Z,102232.16
2023-04-29T19:37:08.603Z,102239.94
2023-04-29T19:39:37.787Z,102251.69
2023-04-29T19:42:05.767Z,102230.69
2023-04-29T19:44:33.786Z,102241.66
2023-04-29T19:47:02.154Z,102245.59
2023-04-29T19:49:32.646Z,102250.25
2023-04-29T19:52:00.921Z,102256.31
2023-04-29T19:54:29.233Z,102263.84
2023-04-29T19:56:58.794Z,102260.63
2023-04-29T19:59:26.843Z,102263.03
2023-04-29T20:01:54.709Z,102250.06
2023-04-29T20:04:24.541Z,102266.69
2023-04-29T20:06:52.576Z,102264.56
2023-04-29T20:09:20.577Z,102270.66
2023-04-29T20:11:48.540Z,102269.03
2023-04-29T20:14:17.678Z,102267.41
2023-04-29T20:16:45.806Z,102267.75
2023-04-29T20:19:13.719Z,102260.91
2023-04-29T20:21:42.136Z,102270.00
2023-04-29T20:24:10.346Z,102261.97
2023-04-29T20:26:38.115Z,102269.41
2023-04-29T20:29:05.979Z,102270.47
2023-04-29T20:31:36.181Z,102269.28
2023-04-29T20:34:04.010Z,102281.72
2023-04-29T20:36:32.396Z,102268.66
2023-04-29T20:39:01.101Z,102280.28
2023-04-29T20:41:29.319Z,102281.41
2023-04-29T20:43:58.615Z,102285.22
2023-04-29T20:46:26.491Z,102289.34
2023-04-29T20:48:55.830Z,102258.38
2023-04-29T20:51:24.200Z,102289.47
2023-04-29T20:54:24.950Z,102291.63
2023-04-29T20:56:53.172Z,102258.41
2023-04-29T20:59:21.230Z,102287.72
2023-04-29T21:01:49.154Z,102300.13
2023-04-29T21:04:18.968Z,102298.94
2023-04-29T21:06:47.332Z,102276.97
2023-04-29T21:09:15.168Z,102270.50
2023-04-29T21:11:43.089Z,102307.53
2023-04-29T21:14:12.894Z,102304.81
2023-04-29T21:16:40.869Z,102308.38
2023-04-29T21:19:08.709Z,102302.94
2023-04-29T21:21:38.042Z,102305.56
2023-04-29T21:24:06.062Z,102308.38
2023-04-29T21:26:34.020Z,102308.50
2023-04-29T21:29:02.182Z,102316.75
2023-04-29T21:31:31.687Z,102315.13
2023-04-29T21:34:00.290Z,102291.38
2023-04-29T21:36:28.180Z,102297.47
2023-04-29T21:38:57.617Z,102287.59
2023-04-29T21:41:27.516Z,102316.63
2023-04-29T21:43:56.149Z,102313.00
2023-04-29T21:46:24.634Z,102321.38
2023-04-29T21:48:52.762Z,102318.97
2023-04-29T21:51:22.767Z,102320.50
2023-04-29T21:53:52.030Z,102327.78
2023-04-29T21:56:22.796Z,102321.16
2023-04-29T21:58:50.629Z,102325.38
2023-04-29T22:01:29.626Z,102332.75
2023-04-29T22:03:58.565Z,102327.44
2023-04-29T22:06:26.782Z,102320.56
2023-04-29T22:08:54.714Z,102321.00
2023-04-29T22:11:24.716Z,102311.44
2023-04-29T22:13:52.701Z,102309.69
2023-04-29T22:16:20.698Z,102325.22
2023-04-29T22:18:48.579Z,102317.19
2023-04-29T22:21:16.548Z,102327.06
2023-04-29T22:23:44.751Z,102320.19
2023-04-29T22:26:12.588Z,102332.50
2023-04-29T22:28:41.770Z,102332.81
2023-04-29T22:31:09.581Z,102335.63
2023-04-29T22:33:37.449Z,102333.22
2023-04-29T22:36:05.635Z,102339.91
2023-04-29T22:38:34.980Z,102337.44
2023-04-29T22:41:02.950Z,102331.63
2023-04-29T22:43:30.782Z,102343.38
2023-04-29T22:46:00.273Z,102336.22
2023-04-29T22:48:28.574Z,102333.56
2023-04-29T22:50:59.178Z,102336.50
2023-04-29T22:53:27.181Z,102326.91
2023-04-29T22:55:56.723Z,102323.94
2023-04-29T22:58:25.847Z,102335.69
2023-04-29T23:00:56.629Z,102328.13
2023-04-29T23:03:26.747Z,102333.66
2023-04-29T23:05:59.455Z,102339.78
2023-04-29T23:08:27.928Z,102341.16
2023-04-29T23:10:55.796Z,102335.72
2023-04-29T23:13:24.075Z,102339.59
2023-04-29T23:15:52.269Z,102334.47
2023-04-29T23:18:20.125Z,102337.28
2023-04-29T23:20:49.360Z,102345.59
2023-04-29T23:23:17.213Z,102351.91
2023-04-29T23:25:45.484Z,102351.03
2023-04-29T23:28:13.386Z,102352.31
2023-04-29T23:30:43.985Z,102357.06
2023-04-29T23:33:11.750Z,102360.91
2023-04-29T23:35:39.536Z,102360.72
2023-04-29T23:38:08.807Z,102364.28
2023-04-29T23:40:36.565Z,102348.31
2023-04-29T23:43:04.416Z,102364.19
2023-04-29T23:45:32.258Z,102359.75
2023-04-29T23:48:00.099Z,102361.69
2023-04-29T23:50:27.921Z,102360.16
2023-04-29T23:52:55.752Z,102355.75
2023-04-29T23:55:24.883Z,102371.84
2023-04-29T23:57:52.977Z,102357.72
